sensor_id;sensor_type;location;lat;lon;timestamp;temperature;humidity
45435;DHT22;31183;47.404;8.500;2023-06-24T00:00:21;19.80;90.20
45435;DHT22;31183;47.404;8.500;2023-06-24T00:02:47;19.80;90.10
45435;DHT22;31183;47.404;8.500;2023-06-24T00:05:14;19.80;90.10
45435;DHT22;31183;47.404;8.500;2023-06-24T00:07:41;19.80;90.00
45435;DHT22;31183;47.404;8.500;2023-06-24T00:10:13;19.80;90.00
45435;DHT22;31183;47.404;8.500;2023-06-24T00:12:40;19.70;90.00
45435;DHT22;31183;47.404;8.500;2023-06-24T00:15:08;19.80;90.00
45435;DHT22;31183;47.404;8.500;2023-06-24T00:17:38;19.70;90.00
45435;DHT22;31183;47.404;8.500;2023-06-24T00:20:05;19.70;89.80
45435;DHT22;31183;47.404;8.500;2023-06-24T00:22:35;19.70;89.90
45435;DHT22;31183;47.404;8.500;2023-06-24T00:25:02;19.70;89.90
45435;DHT22;31183;47.404;8.500;2023-06-24T00:27:29;19.60;89.90
45435;DHT22;31183;47.404;8.500;2023-06-24T00:29:56;19.60;90.00
45435;DHT22;31183;47.404;8.500;2023-06-24T00:32:22;19.60;90.00
45435;DHT22;31183;47.404;8.500;2023-06-24T00:34:49;19.50;90.10
45435;DHT22;31183;47.404;8.500;2023-06-24T00:37:16;19.50;90.20
45435;DHT22;31183;47.404;8.500;2023-06-24T00:39:43;19.50;90.10
45435;DHT22;31183;47.404;8.500;2023-06-24T00:42:10;19.50;90.20
45435;DHT22;31183;47.404;8.500;2023-06-24T00:44:37;19.50;90.20
45435;DHT22;31183;47.404;8.500;2023-06-24T00:47:04;19.50;90.20
45435;DHT22;31183;47.404;8.500;2023-06-24T00:49:31;19.50;90.30
45435;DHT22;31183;47.404;8.500;2023-06-24T00:51:58;19.50;90.30
45435;DHT22;31183;47.404;8.500;2023-06-24T00:54:27;19.50;90.20
45435;DHT22;31183;47.404;8.500;2023-06-24T00:56:58;19.50;90.30
45435;DHT22;31183;47.404;8.500;2023-06-24T00:59:28;19.50;90.20
45435;DHT22;31183;47.404;8.500;2023-06-24T01:01:56;19.40;90.50
45435;DHT22;31183;47.404;8.500;2023-06-24T01:04:23;19.50;90.30
45435;DHT22;31183;47.404;8.500;2023-06-24T01:06:51;19.40;90.30
45435;DHT22;31183;47.404;8.500;2023-06-24T01:09:19;19.40;90.40
45435;DHT22;31183;47.404;8.500;2023-06-24T01:11:46;19.40;90.50
45435;DHT22;31183;47.404;8.500;2023-06-24T01:14:12;19.40;90.50
45435;DHT22;31183;47.404;8.500;2023-06-24T01:17:05;19.40;90.60
45435;DHT22;31183;47.404;8.500;2023-06-24T01:19:56;19.40;90.70
45435;DHT22;31183;47.404;8.500;2023-06-24T01:31:37;19.20;91.00
45435;DHT22;31183;47.404;8.500;2023-06-24T01:34:26;19.20;91.10
45435;DHT22;31183;47.404;8.500;2023-06-24T01:36:58;19.20;91.20
45435;DHT22;31183;47.404;8.500;2023-06-24T01:39:27;19.10;91.30
45435;DHT22;31183;47.404;8.500;2023-06-24T01:41:59;19.20;91.30
45435;DHT22;31183;47.404;8.500;2023-06-24T01:44:27;19.20;91.30
45435;DHT22;31183;47.404;8.500;2023-06-24T01:46:57;19.10;91.40
45435;DHT22;31183;47.404;8.500;2023-06-24T01:49:28;19.20;91.50
45435;DHT22;31183;47.404;8.500;2023-06-24T01:51:56;19.10;91.50
45435;DHT22;31183;47.404;8.500;2023-06-24T01:54:24;19.10;91.60
45435;DHT22;31183;47.404;8.500;2023-06-24T01:56:54;19.10;91.60
45435;DHT22;31183;47.404;8.500;2023-06-24T01:59:23;19.10;91.70
45435;DHT22;31183;47.404;8.500;2023-06-24T02:01:50;19.00;91.80
45435;DHT22;31183;47.404;8.500;2023-06-24T02:04:19;19.00;91.90
45435;DHT22;31183;47.404;8.500;2023-06-24T02:06:46;19.00;92.00
45435;DHT22;31183;47.404;8.500;2023-06-24T02:09:15;18.90;92.10
45435;DHT22;31183;47.404;8.500;2023-06-24T02:11:43;18.80;92.50
45435;DHT22;31183;47.404;8.500;2023-06-24T02:14:11;18.80;92.50
45435;DHT22;31183;47.404;8.500;2023-06-24T02:16:39;18.70;92.70
45435;DHT22;31183;47.404;8.500;2023-06-24T02:19:09;18.70;92.80
45435;DHT22;31183;47.404;8.500;2023-06-24T02:21:39;18.70;92.70
45435;DHT22;31183;47.404;8.500;2023-06-24T02:24:07;18.80;92.80
45435;DHT22;31183;47.404;8.500;2023-06-24T02:26:35;18.90;92.60
45435;DHT22;31183;47.404;8.500;2023-06-24T02:29:03;18.80;92.60
45435;DHT22;31183;47.404;8.500;2023-06-24T02:31:30;18.90;92.60
45435;DHT22;31183;47.404;8.500;2023-06-24T02:33:57;18.80;92.60
45435;DHT22;31183;47.404;8.500;2023-06-24T02:36:23;18.80;92.70
45435;DHT22;31183;47.404;8.500;2023-06-24T02:38:50;18.80;92.80
45435;DHT22;31183;47.404;8.500;2023-06-24T02:41:17;18.80;92.70
45435;DHT22;31183;47.404;8.500;2023-06-24T02:43:44;18.90;92.80
45435;DHT22;31183;47.404;8.500;2023-06-24T02:46:10;18.80;92.80
45435;DHT22;31183;47.404;8.500;2023-06-24T02:48:40;18.80;92.80
45435;DHT22;31183;47.404;8.500;2023-06-24T02:51:08;18.80;92.80
45435;DHT22;31183;47.404;8.500;2023-06-24T02:53:40;18.80;92.90
45435;DHT22;31183;47.404;8.500;2023-06-24T02:56:08;18.80;92.90
45435;DHT22;31183;47.404;8.500;2023-06-24T02:58:37;18.80;93.00
45435;DHT22;31183;47.404;8.500;2023-06-24T03:01:04;18.70;93.00
45435;DHT22;31183;47.404;8.500;2023-06-24T03:03:34;18.70;93.00
45435;DHT22;31183;47.404;8.500;2023-06-24T03:06:01;18.70;93.10
45435;DHT22;31183;47.404;8.500;2023-06-24T03:08:29;18.70;93.10
45435;DHT22;31183;47.404;8.500;2023-06-24T03:10:56;18.70;93.20
45435;DHT22;31183;47.404;8.500;2023-06-24T03:13:23;18.60;93.30
45435;DHT22;31183;47.404;8.500;2023-06-24T03:15:50;18.50;93.60
45435;DHT22;31183;47.404;8.500;2023-06-24T03:18:17;18.50;93.70
45435;DHT22;31183;47.404;8.500;2023-06-24T03:20:44;18.50;93.70
45435;DHT22;31183;47.404;8.500;2023-06-24T03:23:12;18.50;93.70
45435;DHT22;31183;47.404;8.500;2023-06-24T03:25:38;18.50;93.70
45435;DHT22;31183;47.404;8.500;2023-06-24T03:28:05;18.50;93.70
45435;DHT22;31183;47.404;8.500;2023-06-24T03:30:34;18.60;93.60
45435;DHT22;31183;47.404;8.500;2023-06-24T03:33:00;18.60;93.60
45435;DHT22;31183;47.404;8.500;2023-06-24T03:35:27;18.60;93.60
45435;DHT22;31183;47.404;8.500;2023-06-24T03:37:54;18.60;93.60
45435;DHT22;31183;47.404;8.500;2023-06-24T03:40:20;18.60;93.60
45435;DHT22;31183;47.404;8.500;2023-06-24T03:42:47;18.50;93.60
45435;DHT22;31183;47.404;8.500;2023-06-24T03:45:14;18.60;93.70
45435;DHT22;31183;47.404;8.500;2023-06-24T03:47:40;18.50;93.70
45435;DHT22;31183;47.404;8.500;2023-06-24T03:50:08;18.60;93.70
45435;DHT22;31183;47.404;8.500;2023-06-24T03:52:35;18.50;93.70
45435;DHT22;31183;47.404;8.500;2023-06-24T03:55:02;18.60;93.80
45435;DHT22;31183;47.404;8.500;2023-06-24T03:57:30;18.50;93.80
45435;DHT22;31183;47.404;8.500;2023-06-24T03:59:58;18.50;93.80
45435;DHT22;31183;47.404;8.500;2023-06-24T04:02:24;18.50;93.80
45435;DHT22;31183;47.404;8.500;2023-06-24T04:04:53;18.50;93.90
45435;DHT22;31183;47.404;8.500;2023-06-24T04:07:22;18.50;94.00
45435;DHT22;31183;47.404;8.500;2023-06-24T04:09:55;18.50;94.00
45435;DHT22;31183;47.404;8.500;2023-06-24T04:12:23;18.40;94.00
45435;DHT22;31183;47.404;8.500;2023-06-24T04:14:49;18.50;94.00
45435;DHT22;31183;47.404;8.500;2023-06-24T04:17:16;18.40;94.10
45435;DHT22;31183;47.404;8.500;2023-06-24T04:19:43;18.40;94.20
45435;DHT22;31183;47.404;8.500;2023-06-24T04:22:11;18.40;94.20
45435;DHT22;31183;47.404;8.500;2023-06-24T04:24:37;18.40;94.30
45435;DHT22;31183;47.404;8.500;2023-06-24T04:27:07;18.30;94.50
45435;DHT22;31183;47.404;8.500;2023-06-24T04:29:33;18.30;94.60
45435;DHT22;31183;47.404;8.500;2023-06-24T04:32:01;18.40;94.70
45435;DHT22;31183;47.404;8.500;2023-06-24T04:34:27;18.30;94.50
45435;DHT22;31183;47.404;8.500;2023-06-24T04:36:54;18.20;94.90
45435;DHT22;31183;47.404;8.500;2023-06-24T04:39:21;18.30;95.00
45435;DHT22;31183;47.404;8.500;2023-06-24T04:41:47;18.30;94.90
45435;DHT22;31183;47.404;8.500;2023-06-24T04:44:14;18.40;95.20
45435;DHT22;31183;47.404;8.500;2023-06-24T04:46:41;18.50;95.00
45435;DHT22;31183;47.404;8.500;2023-06-24T04:49:07;18.50;94.90
45435;DHT22;31183;47.404;8.500;2023-06-24T04:51:34;18.60;94.80
45435;DHT22;31183;47.404;8.500;2023-06-24T04:54:02;18.70;94.80
45435;DHT22;31183;47.404;8.500;2023-06-24T04:56:29;18.80;94.70
45435;DHT22;31183;47.404;8.500;2023-06-24T04:58:56;18.80;94.50
45435;DHT22;31183;47.404;8.500;2023-06-24T05:01:22;18.80;94.60
45435;DHT22;31183;47.404;8.500;2023-06-24T05:03:49;18.80;94.70
45435;DHT22;31183;47.404;8.500;2023-06-24T05:06:16;18.70;94.50
45435;DHT22;31183;47.404;8.500;2023-06-24T05:08:43;18.60;94.80
45435;DHT22;31183;47.404;8.500;2023-06-24T05:11:09;18.40;95.40
45435;DHT22;31183;47.404;8.500;2023-06-24T05:13:37;18.40;95.20
45435;DHT22;31183;47.404;8.500;2023-06-24T05:16:04;18.60;95.10
45435;DHT22;31183;47.404;8.500;2023-06-24T05:18:31;18.50;94.90
45435;DHT22;31183;47.404;8.500;2023-06-24T05:20:57;18.40;95.20
45435;DHT22;31183;47.404;8.500;2023-06-24T05:23:24;18.50;95.30
45435;DHT22;31183;47.404;8.500;2023-06-24T05:25:51;18.60;95.50
45435;DHT22;31183;47.404;8.500;2023-06-24T05:28:18;18.70;95.20
45435;DHT22;31183;47.404;8.500;2023-06-24T05:30:45;18.90;95.10
45435;DHT22;31183;47.404;8.500;2023-06-24T05:33:12;19.10;94.30
45435;DHT22;31183;47.404;8.500;2023-06-24T05:35:39;19.20;94.10
45435;DHT22;31183;47.404;8.500;2023-06-24T05:38:08;19.40;93.80
45435;DHT22;31183;47.404;8.500;2023-06-24T05:40:35;19.60;93.20
45435;DHT22;31183;47.404;8.500;2023-06-24T05:43:01;19.70;93.00
45435;DHT22;31183;47.404;8.500;2023-06-24T05:45:29;19.80;92.80
45435;DHT22;31183;47.404;8.500;2023-06-24T05:47:56;19.90;92.80
45435;DHT22;31183;47.404;8.500;2023-06-24T05:50:22;20.00;92.50
45435;DHT22;31183;47.404;8.500;2023-06-24T05:52:49;20.10;92.30
45435;DHT22;31183;47.404;8.500;2023-06-24T05:55:16;20.20;92.30
45435;DHT22;31183;47.404;8.500;2023-06-24T05:57:42;20.40;92.10
45435;DHT22;31183;47.404;8.500;2023-06-24T06:00:09;20.20;91.70
45435;DHT22;31183;47.404;8.500;2023-06-24T06:02:36;20.20;91.90
45435;DHT22;31183;47.404;8.500;2023-06-24T06:05:03;20.30;91.70
45435;DHT22;31183;47.404;8.500;2023-06-24T06:07:30;20.60;91.50
45435;DHT22;31183;47.404;8.500;2023-06-24T06:09:57;20.80;91.50
45435;DHT22;31183;47.404;8.500;2023-06-24T06:12:23;20.90;91.20
45435;DHT22;31183;47.404;8.500;2023-06-24T06:14:50;21.00;91.10
45435;DHT22;31183;47.404;8.500;2023-06-24T06:17:16;21.20;90.80
45435;DHT22;31183;47.404;8.500;2023-06-24T06:19:43;21.30;90.50
45435;DHT22;31183;47.404;8.500;2023-06-24T06:22:16;21.40;90.20
45435;DHT22;31183;47.404;8.500;2023-06-24T06:24:44;21.60;89.30
45435;DHT22;31183;47.404;8.500;2023-06-24T06:27:11;21.70;89.50
45435;DHT22;31183;47.404;8.500;2023-06-24T06:29:39;21.80;88.80
45435;DHT22;31183;47.404;8.500;2023-06-24T06:32:06;21.90;87.30
45435;DHT22;31183;47.404;8.500;2023-06-24T06:34:32;22.00;87.20
45435;DHT22;31183;47.404;8.500;2023-06-24T06:36:59;22.00;87.70
45435;DHT22;31183;47.404;8.500;2023-06-24T06:39:26;22.20;87.80
45435;DHT22;31183;47.404;8.500;2023-06-24T06:41:53;22.30;87.40
45435;DHT22;31183;47.404;8.500;2023-06-24T06:44:19;22.60;87.40
45435;DHT22;31183;47.404;8.500;2023-06-24T06:46:46;22.80;86.80
45435;DHT22;31183;47.404;8.500;2023-06-24T06:49:12;23.00;86.20
45435;DHT22;31183;47.404;8.500;2023-06-24T06:51:39;23.30;86.50
45435;DHT22;31183;47.404;8.500;2023-06-24T06:54:06;23.50;85.00
45435;DHT22;31183;47.404;8.500;2023-06-24T06:56:33;23.70;83.70
45435;DHT22;31183;47.404;8.500;2023-06-24T06:58:59;23.90;82.10
45435;DHT22;31183;47.404;8.500;2023-06-24T07:01:26;24.00;81.60
45435;DHT22;31183;47.404;8.500;2023-06-24T07:03:53;24.10;82.20
45435;DHT22;31183;47.404;8.500;2023-06-24T07:06:20;24.40;81.20
45435;DHT22;31183;47.404;8.500;2023-06-24T07:08:46;24.80;79.60
45435;DHT22;31183;47.404;8.500;2023-06-24T07:11:13;25.10;78.10
45435;DHT22;31183;47.404;8.500;2023-06-24T07:13:40;25.30;77.00
45435;DHT22;31183;47.404;8.500;2023-06-24T07:16:07;25.40;76.50
45435;DHT22;31183;47.404;8.500;2023-06-24T07:18:33;25.80;74.10
45435;DHT22;31183;47.404;8.500;2023-06-24T07:21:00;26.00;74.40
45435;DHT22;31183;47.404;8.500;2023-06-24T07:23:28;26.20;74.40
45435;DHT22;31183;47.404;8.500;2023-06-24T07:25:54;26.40;73.50
45435;DHT22;31183;47.404;8.500;2023-06-24T07:28:21;26.60;72.50
45435;DHT22;31183;47.404;8.500;2023-06-24T07:30:48;26.70;71.10
45435;DHT22;31183;47.404;8.500;2023-06-24T07:33:14;27.20;67.10
45435;DHT22;31183;47.404;8.500;2023-06-24T07:35:41;27.20;68.20
45435;DHT22;31183;47.404;8.500;2023-06-24T07:38:08;27.40;68.30
45435;DHT22;31183;47.404;8.500;2023-06-24T07:40:35;27.70;67.00
45435;DHT22;31183;47.404;8.500;2023-06-24T07:43:02;27.70;68.20
45435;DHT22;31183;47.404;8.500;2023-06-24T07:45:28;27.70;67.70
45435;DHT22;31183;47.404;8.500;2023-06-24T07:47:55;28.10;66.70
45435;DHT22;31183;47.404;8.500;2023-06-24T07:50:22;28.70;64.70
45435;DHT22;31183;47.404;8.500;2023-06-24T07:52:49;28.90;64.50
45435;DHT22;31183;47.404;8.500;2023-06-24T07:55:15;29.20;64.10
45435;DHT22;31183;47.404;8.500;2023-06-24T07:57:45;29.80;62.10
45435;DHT22;31183;47.404;8.500;2023-06-24T08:00:14;30.20;60.10
45435;DHT22;31183;47.404;8.500;2023-06-24T08:02:41;30.50;59.40
45435;DHT22;31183;47.404;8.500;2023-06-24T08:05:08;30.50;58.30
45435;DHT22;31183;47.404;8.500;2023-06-24T08:07:36;30.60;58.30
45435;DHT22;31183;47.404;8.500;2023-06-24T08:10:04;30.80;57.00
45435;DHT22;31183;47.404;8.500;2023-06-24T08:12:31;30.80;56.30
45435;DHT22;31183;47.404;8.500;2023-06-24T08:14:58;30.90;55.20
45435;DHT22;31183;47.404;8.500;2023-06-24T08:17:24;30.90;56.00
45435;DHT22;31183;47.404;8.500;2023-06-24T08:19:51;30.70;57.50
45435;DHT22;31183;47.404;8.500;2023-06-24T08:22:18;30.30;57.10
45435;DHT22;31183;47.404;8.500;2023-06-24T08:24:44;30.30;57.10
45435;DHT22;31183;47.404;8.500;2023-06-24T08:27:11;30.70;56.90
45435;DHT22;31183;47.404;8.500;2023-06-24T08:29:38;30.80;56.40
45435;DHT22;31183;47.404;8.500;2023-06-24T08:32:04;30.70;57.10
45435;DHT22;31183;47.404;8.500;2023-06-24T08:34:33;30.90;54.90
45435;DHT22;31183;47.404;8.500;2023-06-24T08:37:00;30.90;54.20
45435;DHT22;31183;47.404;8.500;2023-06-24T08:39:27;30.90;53.40
45435;DHT22;31183;47.404;8.500;2023-06-24T08:41:54;30.70;53.80
45435;DHT22;31183;47.404;8.500;2023-06-24T08:44:20;30.40;54.60
45435;DHT22;31183;47.404;8.500;2023-06-24T08:46:47;30.20;55.00
45435;DHT22;31183;47.404;8.500;2023-06-24T08:52:02;30.00;55.50
45435;DHT22;31183;47.404;8.500;2023-06-24T08:54:30;29.70;56.20
45435;DHT22;31183;47.404;8.500;2023-06-24T08:56:59;29.30;55.80
45435;DHT22;31183;47.404;8.500;2023-06-24T08:59:28;28.80;57.10
45435;DHT22;31183;47.404;8.500;2023-06-24T09:01:54;28.30;58.00
45435;DHT22;31183;47.404;8.500;2023-06-24T09:04:21;28.00;59.60
45435;DHT22;31183;47.404;8.500;2023-06-24T09:06:48;27.80;59.10
45435;DHT22;31183;47.404;8.500;2023-06-24T09:09:20;27.60;59.50
45435;DHT22;31183;47.404;8.500;2023-06-24T09:11:59;27.40;59.80
45435;DHT22;31183;47.404;8.500;2023-06-24T09:14:29;27.20;59.50
45435;DHT22;31183;47.404;8.500;2023-06-24T09:17:00;26.90;60.70
45435;DHT22;31183;47.404;8.500;2023-06-24T09:19:29;26.70;61.50
45435;DHT22;31183;47.404;8.500;2023-06-24T09:22:19;26.50;62.80
45435;DHT22;31183;47.404;8.500;2023-06-24T09:24:47;26.30;61.60
45435;DHT22;31183;47.404;8.500;2023-06-24T09:27:15;26.20;61.60
45435;DHT22;31183;47.404;8.500;2023-06-24T09:29:43;25.90;62.50
45435;DHT22;31183;47.404;8.500;2023-06-24T09:32:10;25.70;63.90
45435;DHT22;31183;47.404;8.500;2023-06-24T09:34:38;25.60;64.00
45435;DHT22;31183;47.404;8.500;2023-06-24T09:37:05;25.50;63.10
45435;DHT22;31183;47.404;8.500;2023-06-24T09:39:39;25.30;62.80
45435;DHT22;31183;47.404;8.500;2023-06-24T09:42:06;25.10;63.60
45435;DHT22;31183;47.404;8.500;2023-06-24T09:44:34;25.00;62.80
45435;DHT22;31183;47.404;8.500;2023-06-24T09:47:01;24.90;63.60
45435;DHT22;31183;47.404;8.500;2023-06-24T09:49:28;24.80;64.90
45435;DHT22;31183;47.404;8.500;2023-06-24T09:51:57;24.70;64.20
45435;DHT22;31183;47.404;8.500;2023-06-24T09:54:28;24.60;64.50
45435;DHT22;31183;47.404;8.500;2023-06-24T09:57:02;24.50;66.10
45435;DHT22;31183;47.404;8.500;2023-06-24T09:59:30;24.40;65.50
45435;DHT22;31183;47.404;8.500;2023-06-24T10:02:02;24.40;64.60
45435;DHT22;31183;47.404;8.500;2023-06-24T10:04:31;24.40;65.40
45435;DHT22;31183;47.404;8.500;2023-06-24T10:06:59;24.40;65.30
45435;DHT22;31183;47.404;8.500;2023-06-24T10:09:29;24.40;65.10
45435;DHT22;31183;47.404;8.500;2023-06-24T10:11:57;24.30;65.70
45435;DHT22;31183;47.404;8.500;2023-06-24T10:14:25;24.30;66.90
45435;DHT22;31183;47.404;8.500;2023-06-24T10:16:51;24.40;67.10
45435;DHT22;31183;47.404;8.500;2023-06-24T10:19:27;24.40;66.10
45435;DHT22;31183;47.404;8.500;2023-06-24T10:21:57;24.40;63.70
45435;DHT22;31183;47.404;8.500;2023-06-24T10:24:38;24.30;64.60
45435;DHT22;31183;47.404;8.500;2023-06-24T10:27:16;24.20;65.00
45435;DHT22;31183;47.404;8.500;2023-06-24T10:29:50;24.20;66.90
45435;DHT22;31183;47.404;8.500;2023-06-24T10:32:19;24.30;67.40
45435;DHT22;31183;47.404;8.500;2023-06-24T10:34:47;24.40;67.80
45435;DHT22;31183;47.404;8.500;2023-06-24T10:39:52;24.40;68.30
45435;DHT22;31183;47.404;8.500;2023-06-24T10:42:39;24.40;67.10
45435;DHT22;31183;47.404;8.500;2023-06-24T10:47:39;24.40;66.10
45435;DHT22;31183;47.404;8.500;2023-06-24T10:50:09;24.20;64.90
45435;DHT22;31183;47.404;8.500;2023-06-24T10:52:40;24.10;65.20
45435;DHT22;31183;47.404;8.500;2023-06-24T10:55:07;24.10;63.60
45435;DHT22;31183;47.404;8.500;2023-06-24T10:57:34;24.00;63.80
45435;DHT22;31183;47.404;8.500;2023-06-24T11:00:02;24.00;64.10
45435;DHT22;31183;47.404;8.500;2023-06-24T11:02:29;24.00;64.90
45435;DHT22;31183;47.404;8.500;2023-06-24T11:05:01;24.00;64.90
45435;DHT22;31183;47.404;8.500;2023-06-24T11:07:30;24.00;63.70
45435;DHT22;31183;47.404;8.500;2023-06-24T11:10:01;24.00;63.70
45435;DHT22;31183;47.404;8.500;2023-06-24T11:12:31;23.90;62.80
45435;DHT22;31183;47.404;8.500;2023-06-24T11:15:02;23.90;63.50
45435;DHT22;31183;47.404;8.500;2023-06-24T11:17:30;23.90;62.00
45435;DHT22;31183;47.404;8.500;2023-06-24T11:19:57;23.90;60.90
45435;DHT22;31183;47.404;8.500;2023-06-24T11:22:25;23.80;59.90
45435;DHT22;31183;47.404;8.500;2023-06-24T11:24:53;23.80;59.80
45435;DHT22;31183;47.404;8.500;2023-06-24T11:27:27;23.70;60.10
45435;DHT22;31183;47.404;8.500;2023-06-24T11:29:55;23.70;61.10
45435;DHT22;31183;47.404;8.500;2023-06-24T11:32:24;23.70;59.70
45435;DHT22;31183;47.404;8.500;2023-06-24T11:34:51;23.70;59.80
45435;DHT22;31183;47.404;8.500;2023-06-24T11:37:18;23.70;58.90
45435;DHT22;31183;47.404;8.500;2023-06-24T11:40:06;23.70;55.50
45435;DHT22;31183;47.404;8.500;2023-06-24T11:42:38;23.70;57.20
45435;DHT22;31183;47.404;8.500;2023-06-24T11:45:07;23.60;57.30
45435;DHT22;31183;47.404;8.500;2023-06-24T11:47:40;23.60;58.30
45435;DHT22;31183;47.404;8.500;2023-06-24T11:50:07;23.50;59.00
45435;DHT22;31183;47.404;8.500;2023-06-24T11:52:46;23.50;59.50
45435;DHT22;31183;47.404;8.500;2023-06-24T11:55:16;23.50;60.20
45435;DHT22;31183;47.404;8.500;2023-06-24T11:57:56;23.50;61.50
45435;DHT22;31183;47.404;8.500;2023-06-24T12:00:25;23.50;59.80
45435;DHT22;31183;47.404;8.500;2023-06-24T12:02:53;23.60;60.30
45435;DHT22;31183;47.404;8.500;2023-06-24T12:05:30;23.60;59.80
45435;DHT22;31183;47.404;8.500;2023-06-24T12:08:02;23.60;61.70
45435;DHT22;31183;47.404;8.500;2023-06-24T12:10:31;23.60;61.90
45435;DHT22;31183;47.404;8.500;2023-06-24T12:13:03;23.70;62.30
45435;DHT22;31183;47.404;8.500;2023-06-24T12:15:32;23.70;62.50
45435;DHT22;31183;47.404;8.500;2023-06-24T12:18:00;23.70;61.80
45435;DHT22;31183;47.404;8.500;2023-06-24T12:20:29;23.70;62.40
45435;DHT22;31183;47.404;8.500;2023-06-24T12:23:02;23.80;63.00
45435;DHT22;31183;47.404;8.500;2023-06-24T12:25:30;23.70;62.70
45435;DHT22;31183;47.404;8.500;2023-06-24T12:27:56;23.70;62.80
45435;DHT22;31183;47.404;8.500;2023-06-24T12:30:23;23.80;63.60
45435;DHT22;31183;47.404;8.500;2023-06-24T12:32:51;23.80;64.60
45435;DHT22;31183;47.404;8.500;2023-06-24T12:35:18;23.70;64.70
45435;DHT22;31183;47.404;8.500;2023-06-24T12:37:46;23.80;63.20
45435;DHT22;31183;47.404;8.500;2023-06-24T12:40:13;23.80;62.70
45435;DHT22;31183;47.404;8.500;2023-06-24T12:42:39;23.80;63.20
45435;DHT22;31183;47.404;8.500;2023-06-24T12:45:07;23.80;63.70
45435;DHT22;31183;47.404;8.500;2023-06-24T12:47:34;23.80;63.80
45435;DHT22;31183;47.404;8.500;2023-06-24T12:50:01;23.90;64.10
45435;DHT22;31183;47.404;8.500;2023-06-24T12:52:27;23.80;64.30
45435;DHT22;31183;47.404;8.500;2023-06-24T12:54:54;23.90;62.70
45435;DHT22;31183;47.404;8.500;2023-06-24T12:57:21;23.90;63.00
45435;DHT22;31183;47.404;8.500;2023-06-24T12:59:47;23.90;63.30
45435;DHT22;31183;47.404;8.500;2023-06-24T13:02:14;23.80;63.20
45435;DHT22;31183;47.404;8.500;2023-06-24T13:04:41;23.90;64.20
45435;DHT22;31183;47.404;8.500;2023-06-24T13:07:07;23.80;63.00
45435;DHT22;31183;47.404;8.500;2023-06-24T13:09:36;23.80;62.70
45435;DHT22;31183;47.404;8.500;2023-06-24T13:12:03;23.90;63.80
45435;DHT22;31183;47.404;8.500;2023-06-24T13:14:30;23.90;61.60
45435;DHT22;31183;47.404;8.500;2023-06-24T13:16:57;23.90;62.70
45435;DHT22;31183;47.404;8.500;2023-06-24T13:19:23;23.90;62.20
45435;DHT22;31183;47.404;8.500;2023-06-24T13:21:50;23.90;63.00
45435;DHT22;31183;47.404;8.500;2023-06-24T13:24:17;23.90;62.40
45435;DHT22;31183;47.404;8.500;2023-06-24T13:26:44;23.90;62.90
45435;DHT22;31183;47.404;8.500;2023-06-24T13:29:11;23.90;63.60
45435;DHT22;31183;47.404;8.500;2023-06-24T13:31:38;23.90;64.30
45435;DHT22;31183;47.404;8.500;2023-06-24T13:34:05;24.00;64.60
45435;DHT22;31183;47.404;8.500;2023-06-24T13:36:34;24.00;62.50
45435;DHT22;31183;47.404;8.500;2023-06-24T13:39:05;24.00;62.00
45435;DHT22;31183;47.404;8.500;2023-06-24T13:41:33;24.00;62.60
45435;DHT22;31183;47.404;8.500;2023-06-24T13:44:03;24.00;63.30
45435;DHT22;31183;47.404;8.500;2023-06-24T13:46:31;24.00;61.30
45435;DHT22;31183;47.404;8.500;2023-06-24T13:48:59;24.00;61.30
45435;DHT22;31183;47.404;8.500;2023-06-24T13:51:28;24.10;59.90
45435;DHT22;31183;47.404;8.500;2023-06-24T13:53:55;24.00;59.50
45435;DHT22;31183;47.404;8.500;2023-06-24T13:56:23;24.00;59.60
45435;DHT22;31183;47.404;8.500;2023-06-24T13:58:51;23.90;59.70
45435;DHT22;31183;47.404;8.500;2023-06-24T14:01:18;23.90;60.50
45435;DHT22;31183;47.404;8.500;2023-06-24T14:03:46;23.80;61.10
45435;DHT22;31183;47.404;8.500;2023-06-24T14:06:15;23.90;61.30
45435;DHT22;31183;47.404;8.500;2023-06-24T14:08:42;23.90;61.70
45435;DHT22;31183;47.404;8.500;2023-06-24T14:11:09;23.90;62.00
45435;DHT22;31183;47.404;8.500;2023-06-24T14:13:36;23.90;61.90
45435;DHT22;31183;47.404;8.500;2023-06-24T14:16:04;23.90;60.50
45435;DHT22;31183;47.404;8.500;2023-06-24T14:18:31;23.90;61.10
45435;DHT22;31183;47.404;8.500;2023-06-24T14:21:03;24.00;60.30
45435;DHT22;31183;47.404;8.500;2023-06-24T14:23:30;23.90;60.50
45435;DHT22;31183;47.404;8.500;2023-06-24T14:25:58;24.00;61.40
45435;DHT22;31183;47.404;8.500;2023-06-24T14:28:26;24.00;61.50
45435;DHT22;31183;47.404;8.500;2023-06-24T14:30:53;24.00;61.50
45435;DHT22;31183;47.404;8.500;2023-06-24T14:33:19;24.00;60.50
45435;DHT22;31183;47.404;8.500;2023-06-24T14:35:46;24.00;59.90
45435;DHT22;31183;47.404;8.500;2023-06-24T14:38:13;24.00;60.20
45435;DHT22;31183;47.404;8.500;2023-06-24T14:40:39;24.10;60.10
45435;DHT22;31183;47.404;8.500;2023-06-24T14:43:06;24.10;59.10
45435;DHT22;31183;47.404;8.500;2023-06-24T14:45:33;24.10;59.50
45435;DHT22;31183;47.404;8.500;2023-06-24T14:47:59;24.10;59.80
45435;DHT22;31183;47.404;8.500;2023-06-24T14:50:26;24.00;59.40
45435;DHT22;31183;47.404;8.500;2023-06-24T14:52:53;24.00;60.40
45435;DHT22;31183;47.404;8.500;2023-06-24T14:55:19;24.00;60.20
45435;DHT22;31183;47.404;8.500;2023-06-24T14:57:46;24.00;60.20
45435;DHT22;31183;47.404;8.500;2023-06-24T15:00:13;24.10;60.00
45435;DHT22;31183;47.404;8.500;2023-06-24T15:02:40;24.10;59.70
45435;DHT22;31183;47.404;8.500;2023-06-24T15:05:07;24.10;59.60
45435;DHT22;31183;47.404;8.500;2023-06-24T15:07:34;24.10;59.80
45435;DHT22;31183;47.404;8.500;2023-06-24T15:10:01;24.10;59.60
45435;DHT22;31183;47.404;8.500;2023-06-24T15:12:28;24.10;59.60
45435;DHT22;31183;47.404;8.500;2023-06-24T15:14:55;24.10;59.40
45435;DHT22;31183;47.404;8.500;2023-06-24T15:17:21;24.10;59.00
45435;DHT22;31183;47.404;8.500;2023-06-24T15:19:51;24.10;59.20
45435;DHT22;31183;47.404;8.500;2023-06-24T15:22:17;24.10;60.00
45435;DHT22;31183;47.404;8.500;2023-06-24T15:24:44;24.00;59.60
45435;DHT22;31183;47.404;8.500;2023-06-24T15:27:11;24.10;59.20
45435;DHT22;31183;47.404;8.500;2023-06-24T15:29:38;24.00;59.70
45435;DHT22;31183;47.404;8.500;2023-06-24T15:32:05;24.10;59.90
45435;DHT22;31183;47.404;8.500;2023-06-24T15:34:32;24.10;60.00
45435;DHT22;31183;47.404;8.500;2023-06-24T15:36:58;24.10;59.90
45435;DHT22;31183;47.404;8.500;2023-06-24T15:39:25;24.10;59.60
45435;DHT22;31183;47.404;8.500;2023-06-24T15:41:52;24.10;59.50
45435;DHT22;31183;47.404;8.500;2023-06-24T15:44:18;24.10;60.00
45435;DHT22;31183;47.404;8.500;2023-06-24T15:46:45;24.10;61.00
45435;DHT22;31183;47.404;8.500;2023-06-24T15:49:14;24.20;61.20
45435;DHT22;31183;47.404;8.500;2023-06-24T15:51:41;24.20;60.40